sensor_id;sensor_type;location;lat;lon;timestamp;P1;durP1;ratioP1;P2;durP2;ratioP2
30420;SDS011;17218;54.070;10.012;2023-03-29T00:00:27;15.73;;;10.77;;
30420;SDS011;17218;54.070;10.012;2023-03-29T00:02:54;17.03;;;10.70;;
30420;SDS011;17218;54.070;10.012;2023-03-29T00:05:21;19.93;;;11.40;;
30420;SDS011;17218;54.070;10.012;2023-03-29T00:07:50;16.07;;;11.00;;
30420;SDS011;17218;54.070;10.012;2023-03-29T00:10:18;15.23;;;10.50;;
30420;SDS011;17218;54.070;10.012;2023-03-29T00:12:46;20.50;;;11.40;;
30420;SDS011;17218;54.070;10.012;2023-03-29T00:15:13;13.17;;;10.70;;
30420;SDS011;17218;54.070;10.012;2023-03-29T00:17:39;18.80;;;12.73;;
30420;SDS011;17218;54.070;10.012;2023-03-29T00:20:06;15.67;;;11.10;;
30420;SDS011;17218;54.070;10.012;2023-03-29T00:22:35;16.37;;;11.07;;
30420;SDS011;17218;54.070;10.012;2023-03-29T00:25:03;17.50;;;12.30;;
30420;SDS011;17218;54.070;10.012;2023-03-29T00:27:31;15.53;;;12.70;;
30420;SDS011;17218;54.070;10.012;2023-03-29T00:29:57;22.40;;;13.53;;
30420;SDS011;17218;54.070;10.012;2023-03-29T00:32:24;20.27;;;13.40;;
30420;SDS011;17218;54.070;10.012;2023-03-29T00:34:51;21.77;;;12.93;;
30420;SDS011;17218;54.070;10.012;2023-03-29T00:37:18;18.03;;;12.83;;
30420;SDS011;17218;54.070;10.012;2023-03-29T00:39:45;18.60;;;13.37;;
30420;SDS011;17218;54.070;10.012;2023-03-29T00:42:14;16.67;;;12.23;;
30420;SDS011;17218;54.070;10.012;2023-03-29T00:44:52;16.70;;;12.77;;
30420;SDS011;17218;54.070;10.012;2023-03-29T00:47:23;17.10;;;13.27;;
30420;SDS011;17218;54.070;10.012;2023-03-29T00:49:52;15.40;;;12.90;;
30420;SDS011;17218;54.070;10.012;2023-03-29T00:52:21;20.63;;;14.30;;
30420;SDS011;17218;54.070;10.012;2023-03-29T00:54:49;23.10;;;16.00;;
30420;SDS011;17218;54.070;10.012;2023-03-29T00:57:21;19.40;;;14.77;;
30420;SDS011;17218;54.070;10.012;2023-03-29T00:59:49;20.00;;;14.47;;
30420;SDS011;17218;54.070;10.012;2023-03-29T01:02:17;19.00;;;13.83;;
30420;SDS011;17218;54.070;10.012;2023-03-29T01:04:48;21.57;;;14.57;;
30420;SDS011;17218;54.070;10.012;2023-03-29T01:07:20;23.20;;;15.23;;
30420;SDS011;17218;54.070;10.012;2023-03-29T01:09:53;23.47;;;14.87;;
30420;SDS011;17218;54.070;10.012;2023-03-29T01:12:26;23.57;;;15.67;;
30420;SDS011;17218;54.070;10.012;2023-03-29T01:14:57;20.40;;;14.47;;
30420;SDS011;17218;54.070;10.012;2023-03-29T01:17:28;22.63;;;15.87;;
30420;SDS011;17218;54.070;10.012;2023-03-29T01:19:56;22.87;;;15.40;;
30420;SDS011;17218;54.070;10.012;2023-03-29T01:22:33;18.60;;;14.73;;
30420;SDS011;17218;54.070;10.012;2023-03-29T01:25:08;21.13;;;15.33;;
30420;SDS011;17218;54.070;10.012;2023-03-29T01:27:45;21.60;;;15.60;;
30420;SDS011;17218;54.070;10.012;2023-03-29T01:30:17;20.70;;;15.10;;
30420;SDS011;17218;54.070;10.012;2023-03-29T01:32:49;25.23;;;16.07;;
30420;SDS011;17218;54.070;10.012;2023-03-29T01:35:21;23.20;;;15.23;;
30420;SDS011;17218;54.070;10.012;2023-03-29T01:37:53;22.23;;;16.13;;
30420;SDS011;17218;54.070;10.012;2023-03-29T01:40:24;21.70;;;15.77;;
30420;SDS011;17218;54.070;10.012;2023-03-29T01:42:54;23.00;;;15.23;;
30420;SDS011;17218;54.070;10.012;2023-03-29T01:45:28;24.27;;;15.70;;
30420;SDS011;17218;54.070;10.012;2023-03-29T01:48:00;25.93;;;16.30;;
30420;SDS011;17218;54.070;10.012;2023-03-29T01:50:36;22.60;;;16.03;;
30420;SDS011;17218;54.070;10.012;2023-03-29T01:53:07;22.93;;;15.67;;
30420;SDS011;17218;54.070;10.012;2023-03-29T01:55:43;21.57;;;15.40;;
30420;SDS011;17218;54.070;10.012;2023-03-29T01:58:16;24.50;;;15.50;;
30420;SDS011;17218;54.070;10.012;2023-03-29T02:00:44;20.87;;;14.60;;
30420;SDS011;17218;54.070;10.012;2023-03-29T02:03:11;20.00;;;15.40;;
30420;SDS011;17218;54.070;10.012;2023-03-29T02:05:41;20.53;;;14.37;;
30420;SDS011;17218;54.070;10.012;2023-03-29T02:08:10;23.47;;;15.03;;
30420;SDS011;17218;54.070;10.012;2023-03-29T02:10:39;22.20;;;14.83;;
30420;SDS011;17218;54.070;10.012;2023-03-29T02:13:06;20.00;;;14.60;;
30420;SDS011;17218;54.070;10.012;2023-03-29T02:15:34;24.30;;;14.20;;
30420;SDS011;17218;54.070;10.012;2023-03-29T02:18:01;16.93;;;13.37;;
30420;SDS011;17218;54.070;10.012;2023-03-29T02:20:28;24.47;;;14.27;;
30420;SDS011;17218;54.070;10.012;2023-03-29T02:22:57;21.87;;;14.00;;
30420;SDS011;17218;54.070;10.012;2023-03-29T02:25:28;20.20;;;13.27;;
30420;SDS011;17218;54.070;10.012;2023-03-29T02:27:56;19.43;;;13.83;;
30420;SDS011;17218;54.070;10.012;2023-03-29T02:30:24;24.60;;;14.27;;
30420;SDS011;17218;54.070;10.012;2023-03-29T02:32:57;17.00;;;12.80;;
30420;SDS011;17218;54.070;10.012;2023-03-29T02:35:30;21.53;;;14.00;;
30420;SDS011;17218;54.070;10.012;2023-03-29T02:38:00;20.97;;;12.60;;
30420;SDS011;17218;54.070;10.012;2023-03-29T02:40:28;17.73;;;12.47;;
30420;SDS011;17218;54.070;10.012;2023-03-29T02:42:57;18.83;;;12.47;;
30420;SDS011;17218;54.070;10.012;2023-03-29T02:45:27;17.73;;;13.37;;
30420;SDS011;17218;54.070;10.012;2023-03-29T02:47:54;16.43;;;12.53;;
30420;SDS011;17218;54.070;10.012;2023-03-29T02:50:27;16.87;;;12.43;;
30420;SDS011;17218;54.070;10.012;2023-03-29T02:53:00;18.57;;;12.00;;
30420;SDS011;17218;54.070;10.012;2023-03-29T02:55:30;23.10;;;13.50;;
30420;SDS011;17218;54.070;10.012;2023-03-29T02:57:59;19.07;;;12.20;;
30420;SDS011;17218;54.070;10.012;2023-03-29T03:00:31;21.70;;;13.33;;
30420;SDS011;17218;54.070;10.012;2023-03-29T03:03:00;17.57;;;13.53;;
30420;SDS011;17218;54.070;10.012;2023-03-29T03:05:27;19.03;;;13.33;;
30420;SDS011;17218;54.070;10.012;2023-03-29T03:07:53;20.97;;;11.70;;
30420;SDS011;17218;54.070;10.012;2023-03-29T03:10:20;20.57;;;12.27;;
30420;SDS011;17218;54.070;10.012;2023-03-29T03:12:47;18.43;;;12.93;;
30420;SDS011;17218;54.070;10.012;2023-03-29T03:15:13;17.00;;;11.30;;
30420;SDS011;17218;54.070;10.012;2023-03-29T03:17:40;17.10;;;12.27;;
30420;SDS011;17218;54.070;10.012;2023-03-29T03:20:09;21.03;;;11.40;;
30420;SDS011;17218;54.070;10.012;2023-03-29T03:22:38;15.37;;;10.97;;
30420;SDS011;17218;54.070;10.012;2023-03-29T03:25:05;15.57;;;11.07;;
30420;SDS011;17218;54.070;10.012;2023-03-29T03:27:34;19.03;;;11.47;;
30420;SDS011;17218;54.070;10.012;2023-03-29T03:30:01;14.90;;;11.57;;
30420;SDS011;17218;54.070;10.012;2023-03-29T03:32:29;19.77;;;11.07;;
30420;SDS011;17218;54.070;10.012;2023-03-29T03:38:19;14.03;;;10.13;;
30420;SDS011;17218;54.070;10.012;2023-03-29T03:40:51;15.23;;;9.90;;
30420;SDS011;17218;54.070;10.012;2023-03-29T03:43:18;15.60;;;10.70;;
30420;SDS011;17218;54.070;10.012;2023-03-29T03:45:45;16.50;;;10.00;;
30420;SDS011;17218;54.070;10.012;2023-03-29T03:48:11;15.67;;;9.57;;
30420;SDS011;17218;54.070;10.012;2023-03-29T03:50:38;14.73;;;8.83;;
30420;SDS011;17218;54.070;10.012;2023-03-29T03:53:05;10.97;;;8.67;;
30420;SDS011;17218;54.070;10.012;2023-03-29T03:55:33;13.30;;;9.00;;
30420;SDS011;17218;54.070;10.012;2023-03-29T03:58:00;12.00;;;8.23;;
30420;SDS011;17218;54.070;10.012;2023-03-29T04:00:27;17.43;;;8.73;;
30420;SDS011;17218;54.070;10.012;2023-03-29T04:02:53;16.43;;;9.33;;
30420;SDS011;17218;54.070;10.012;2023-03-29T04:05:20;11.37;;;8.37;;
30420;SDS011;17218;54.070;10.012;2023-03-29T04:07:46;12.77;;;8.73;;
30420;SDS011;17218;54.070;10.012;2023-03-29T04:10:14;15.10;;;8.50;;
30420;SDS011;17218;54.070;10.012;2023-03-29T04:12:42;13.97;;;8.20;;
30420;SDS011;17218;54.070;10.012;2023-03-29T04:15:09;12.33;;;8.37;;
30420;SDS011;17218;54.070;10.012;2023-03-29T04:17:36;13.33;;;8.20;;
30420;SDS011;17218;54.070;10.012;2023-03-29T04:20:03;13.23;;;7.53;;
30420;SDS011;17218;54.070;10.012;2023-03-29T04:22:35;11.73;;;7.70;;
30420;SDS011;17218;54.070;10.012;2023-03-29T04:25:01;16.53;;;7.50;;
30420;SDS011;17218;54.070;10.012;2023-03-29T04:27:28;12.40;;;6.77;;
30420;SDS011;17218;54.070;10.012;2023-03-29T04:29:56;12.03;;;6.70;;
30420;SDS011;17218;54.070;10.012;2023-03-29T04:32:22;13.40;;;7.00;;
30420;SDS011;17218;54.070;10.012;2023-03-29T04:34:49;11.43;;;6.50;;
30420;SDS011;17218;54.070;10.012;2023-03-29T04:37:15;10.87;;;6.43;;
30420;SDS011;17218;54.070;10.012;2023-03-29T04:39:46;12.83;;;6.70;;
30420;SDS011;17218;54.070;10.012;2023-03-29T04:42:13;9.63;;;5.13;;
30420;SDS011;17218;54.070;10.012;2023-03-29T04:44:40;8.50;;;5.53;;
30420;SDS011;17218;54.070;10.012;2023-03-29T04:47:08;11.50;;;5.27;;
30420;SDS011;17218;54.070;10.012;2023-03-29T04:49:36;11.80;;;4.90;;
30420;SDS011;17218;54.070;10.012;2023-03-29T04:52:03;7.70;;;4.77;;
30420;SDS011;17218;54.070;10.012;2023-03-29T04:54:30;7.60;;;4.70;;
30420;SDS011;17218;54.070;10.012;2023-03-29T04:56:57;7.30;;;4.67;;
30420;SDS011;17218;54.070;10.012;2023-03-29T04:59:24;7.37;;;4.33;;
30420;SDS011;17218;54.070;10.012;2023-03-29T05:01:50;11.73;;;4.93;;
30420;SDS011;17218;54.070;10.012;2023-03-29T05:04:18;11.50;;;4.50;;
30420;SDS011;17218;54.070;10.012;2023-03-29T05:06:44;6.97;;;4.27;;
30420;SDS011;17218;54.070;10.012;2023-03-29T05:09:11;10.37;;;3.70;;
30420;SDS011;17218;54.070;10.012;2023-03-29T05:11:37;5.80;;;3.80;;
30420;SDS011;17218;54.070;10.012;2023-03-29T05:14:04;9.30;;;4.43;;
30420;SDS011;17218;54.070;10.012;2023-03-29T05:16:32;8.30;;;3.60;;
30420;SDS011;17218;54.070;10.012;2023-03-29T05:18:59;7.60;;;4.27;;
30420;SDS011;17218;54.070;10.012;2023-03-29T05:21:27;8.50;;;3.73;;
30420;SDS011;17218;54.070;10.012;2023-03-29T05:23:54;7.23;;;4.57;;
30420;SDS011;17218;54.070;10.012;2023-03-29T05:26:20;7.63;;;4.17;;
30420;SDS011;17218;54.070;10.012;2023-03-29T05:28:47;5.13;;;4.00;;
30420;SDS011;17218;54.070;10.012;2023-03-29T05:31:14;8.40;;;4.47;;
30420;SDS011;17218;54.070;10.012;2023-03-29T05:33:41;9.13;;;4.47;;
30420;SDS011;17218;54.070;10.012;2023-03-29T05:36:08;7.83;;;3.87;;
30420;SDS011;17218;54.070;10.012;2023-03-29T05:38:39;12.03;;;4.67;;
30420;SDS011;17218;54.070;10.012;2023-03-29T05:41:09;12.23;;;5.03;;
30420;SDS011;17218;54.070;10.012;2023-03-29T05:43:35;9.00;;;5.07;;
30420;SDS011;17218;54.070;10.012;2023-03-29T05:46:03;12.70;;;4.70;;
30420;SDS011;17218;54.070;10.012;2023-03-29T05:48:31;8.00;;;4.67;;
30420;SDS011;17218;54.070;10.012;2023-03-29T05:50:58;12.70;;;5.20;;
30420;SDS011;17218;54.070;10.012;2023-03-29T05:53:24;9.93;;;4.93;;
30420;SDS011;17218;54.070;10.012;2023-03-29T05:55:53;11.23;;;5.17;;
30420;SDS011;17218;54.070;10.012;2023-03-29T05:58:20;6.63;;;4.33;;
30420;SDS011;17218;54.070;10.012;2023-03-29T06:00:47;7.43;;;4.70;;
30420;SDS011;17218;54.070;10.012;2023-03-29T06:03:16;8.03;;;4.90;;
30420;SDS011;17218;54.070;10.012;2023-03-29T06:05:43;9.70;;;4.93;;
30420;SDS011;17218;54.070;10.012;2023-03-29T06:08:12;7.77;;;4.73;;
30420;SDS011;17218;54.070;10.012;2023-03-29T06:10:38;6.20;;;4.57;;
30420;SDS011;17218;54.070;10.012;2023-03-29T06:13:07;8.33;;;4.67;;
30420;SDS011;17218;54.070;10.012;2023-03-29T06:15:33;8.77;;;5.10;;
30420;SDS011;17218;54.070;10.012;2023-03-29T06:18:01;11.37;;;4.97;;
30420;SDS011;17218;54.070;10.012;2023-03-29T06:20:27;6.23;;;4.63;;
30420;SDS011;17218;54.070;10.012;2023-03-29T06:22:54;10.03;;;4.93;;
30420;SDS011;17218;54.070;10.012;2023-03-29T06:25:20;6.63;;;4.80;;
30420;SDS011;17218;54.070;10.012;2023-03-29T06:27:47;8.60;;;5.00;;
30420;SDS011;17218;54.070;10.012;2023-03-29T06:30:15;10.27;;;6.40;;
30420;SDS011;17218;54.070;10.012;2023-03-29T06:32:43;7.83;;;4.90;;
30420;SDS011;17218;54.070;10.012;2023-03-29T06:35:10;7.63;;;5.17;;
30420;SDS011;17218;54.070;10.012;2023-03-29T06:37:37;7.70;;;5.80;;
30420;SDS011;17218;54.070;10.012;2023-03-29T06:40:04;9.53;;;5.87;;
30420;SDS011;17218;54.070;10.012;2023-03-29T06:42:33;8.73;;;5.80;;
30420;SDS011;17218;54.070;10.012;2023-03-29T06:44:59;9.37;;;5.73;;
30420;SDS011;17218;54.070;10.012;2023-03-29T06:47:28;6.53;;;5.87;;
30420;SDS011;17218;54.070;10.012;2023-03-29T06:49:55;13.40;;;6.10;;
30420;SDS011;17218;54.070;10.012;2023-03-29T06:52:21;11.33;;;6.17;;
30420;SDS011;17218;54.070;10.012;2023-03-29T06:54:48;12.83;;;7.03;;
30420;SDS011;17218;54.070;10.012;2023-03-29T06:57:15;10.67;;;5.97;;
30420;SDS011;17218;54.070;10.012;2023-03-29T06:59:42;11.40;;;6.67;;
30420;SDS011;17218;54.070;10.012;2023-03-29T07:02:09;15.23;;;7.00;;
30420;SDS011;17218;54.070;10.012;2023-03-29T07:04:38;9.73;;;7.30;;
30420;SDS011;17218;54.070;10.012;2023-03-29T07:07:06;10.97;;;6.53;;
30420;SDS011;17218;54.070;10.012;2023-03-29T07:09:43;10.53;;;7.23;;
30420;SDS011;17218;54.070;10.012;2023-03-29T07:12:10;11.30;;;7.87;;
30420;SDS011;17218;54.070;10.012;2023-03-29T07:14:37;10.73;;;7.47;;
30420;SDS011;17218;54.070;10.012;2023-03-29T07:17:03;10.70;;;7.30;;
30420;SDS011;17218;54.070;10.012;2023-03-29T07:19:30;9.33;;;6.60;;
30420;SDS011;17218;54.070;10.012;2023-03-29T07:21:58;10.70;;;7.60;;
30420;SDS011;17218;54.070;10.012;2023-03-29T07:24:25;13.03;;;8.07;;
30420;SDS011;17218;54.070;10.012;2023-03-29T07:26:51;10.90;;;8.07;;
30420;SDS011;17218;54.070;10.012;2023-03-29T07:29:17;10.53;;;7.33;;
30420;SDS011;17218;54.070;10.012;2023-03-29T07:31:44;11.07;;;8.37;;
30420;SDS011;17218;54.070;10.012;2023-03-29T07:34:11;14.33;;;7.83;;
30420;SDS011;17218;54.070;10.012;2023-03-29T07:36:38;14.93;;;9.20;;
30420;SDS011;17218;54.070;10.012;2023-03-29T07:39:06;9.27;;;7.83;;
30420;SDS011;17218;54.070;10.012;2023-03-29T07:41:33;13.97;;;8.97;;
30420;SDS011;17218;54.070;10.012;2023-03-29T07:44:00;10.90;;;7.90;;
30420;SDS011;17218;54.070;10.012;2023-03-29T07:46:32;11.93;;;8.23;;
30420;SDS011;17218;54.070;10.012;2023-03-29T07:48:59;14.00;;;9.10;;
30420;SDS011;17218;54.070;10.012;2023-03-29T07:51:26;9.07;;;7.60;;
30420;SDS011;17218;54.070;10.012;2023-03-29T07:53:53;12.63;;;7.83;;
30420;SDS011;17218;54.070;10.012;2023-03-29T07:56:20;11.87;;;8.30;;
30420;SDS011;17218;54.070;10.012;2023-03-29T07:58:48;13.77;;;8.70;;
30420;SDS011;17218;54.070;10.012;2023-03-29T08:01:15;18.30;;;9.30;;
30420;SDS011;17218;54.070;10.012;2023-03-29T08:03:43;11.27;;;8.17;;
30420;SDS011;17218;54.070;10.012;2023-03-29T08:06:09;11.03;;;8.20;;
30420;SDS011;17218;54.070;10.012;2023-03-29T08:08:36;10.60;;;8.77;;
30420;SDS011;17218;54.070;10.012;2023-03-29T08:11:03;13.60;;;8.60;;
30420;SDS011;17218;54.070;10.012;2023-03-29T08:13:32;13.57;;;8.90;;
30420;SDS011;17218;54.070;10.012;2023-03-29T08:15:59;11.70;;;7.77;;
30420;SDS011;17218;54.070;10.012;2023-03-29T08:18:26;10.53;;;8.27;;
30420;SDS011;17218;54.070;10.012;2023-03-29T08:20:52;13.43;;;8.47;;
30420;SDS011;17218;54.070;10.012;2023-03-29T08:23:19;10.73;;;8.17;;
30420;SDS011;17218;54.070;10.012;2023-03-29T08:25:45;10.47;;;8.53;;
30420;SDS011;17218;54.070;10.012;2023-03-29T08:28:12;14.67;;;8.90;;
30420;SDS011;17218;54.070;10.012;2023-03-29T08:30:39;10.27;;;7.90;;
30420;SDS011;17218;54.070;10.012;2023-03-29T08:33:06;11.57;;;8.53;;
30420;SDS011;17218;54.070;10.012;2023-03-29T08:35:33;12.97;;;7.90;;
30420;SDS011;17218;54.070;10.012;2023-03-29T08:37:59;12.77;;;8.80;;
30420;SDS011;17218;54.070;10.012;2023-03-29T08:40:26;11.37;;;7.93;;
30420;SDS011;17218;54.070;10.012;2023-03-29T08:43:02;11.53;;;7.63;;
30420;SDS011;17218;54.070;10.012;2023-03-29T08:45:38;12.60;;;7.93;;
30420;SDS011;17218;54.070;10.012;2023-03-29T08:48:17;13.53;;;7.47;;
30420;SDS011;17218;54.070;10.012;2023-03-29T08:50:49;13.20;;;8.00;;
30420;SDS011;17218;54.070;10.012;2023-03-29T08:53:18;11.50;;;7.73;;
30420;SDS011;17218;54.070;10.012;2023-03-29T08:55:50;10.97;;;7.23;;
30420;SDS011;17218;54.070;10.012;2023-03-29T08:58:19;11.57;;;7.10;;
30420;SDS011;17218;54.070;10.012;2023-03-29T09:00:51;9.97;;;7.50;;
30420;SDS011;17218;54.070;10.012;2023-03-29T09:03:21;10.37;;;7.57;;
30420;SDS011;17218;54.070;10.012;2023-03-29T09:05:50;12.43;;;8.55;;
30420;SDS011;17218;54.070;10.012;2023-03-29T09:08:21;11.13;;;8.10;;
30420;SDS011;17218;54.070;10.012;2023-03-29T09:10:52;11.47;;;7.40;;
30420;SDS011;17218;54.070;10.012;2023-03-29T09:13:33;9.40;;;7.13;;
30420;SDS011;17218;54.070;10.012;2023-03-29T09:16:07;9.97;;;7.97;;
30420;SDS011;17218;54.070;10.012;2023-03-29T09:18:40;12.07;;;8.43;;
30420;SDS011;17218;54.070;10.012;2023-03-29T09:21:16;10.30;;;7.90;;
30420;SDS011;17218;54.070;10.012;2023-03-29T09:23:58;12.63;;;7.30;;
30420;SDS011;17218;54.070;10.012;2023-03-29T09:26:43;9.07;;;6.30;;
30420;SDS011;17218;54.070;10.012;2023-03-29T09:29:20;9.90;;;7.13;;
30420;SDS011;17218;54.070;10.012;2023-03-29T09:32:18;10.27;;;7.97;;
30420;SDS011;17218;54.070;10.012;2023-03-29T09:34:48;9.43;;;7.63;;
30420;SDS011;17218;54.070;10.012;2023-03-29T09:37:26;11.13;;;7.83;;
30420;SDS011;17218;54.070;10.012;2023-03-29T09:39:57;9.60;;;6.73;;
30420;SDS011;17218;54.070;10.012;2023-03-29T09:42:24;10.30;;;7.20;;
30420;SDS011;17218;54.070;10.012;2023-03-29T09:44:54;7.33;;;6.40;;
30420;SDS011;17218;54.070;10.012;2023-03-29T09:47:28;10.40;;;7.63;;
30420;SDS011;17218;54.070;10.012;2023-03-29T09:50:01;10.67;;;7.03;;
30420;SDS011;17218;54.070;10.012;2023-03-29T09:52:31;10.13;;;7.93;;
30420;SDS011;17218;54.070;10.012;2023-03-29T09:54:58;9.97;;;7.50;;
30420;SDS011;17218;54.070;10.012;2023-03-29T09:57:26;10.77;;;7.23;;
30420;SDS011;17218;54.070;10.012;2023-03-29T09:59:54;9.70;;;7.13;;
30420;SDS011;17218;54.070;10.012;2023-03-29T10:02:23;11.70;;;7.47;;
30420;SDS011;17218;54.070;10.012;2023-03-29T10:04:54;9.40;;;6.88;;
30420;SDS011;17218;54.070;10.012;2023-03-29T10:07:31;8.95;;;6.93;;
30420;SDS011;17218;54.070;10.012;2023-03-29T10:10:00;10.45;;;6.85;;
30420;SDS011;17218;54.070;10.012;2023-03-29T10:12:26;8.15;;;6.78;;
30420;SDS011;17218;54.070;10.012;2023-03-29T10:14:53;10.32;;;6.72;;
30420;SDS011;17218;54.070;10.012;2023-03-29T10:17:21;8.90;;;6.70;;
30420;SDS011;17218;54.070;10.012;2023-03-29T10:19:49;8.27;;;6.22;;
30420;SDS011;17218;54.070;10.012;2023-03-29T10:22:20;9.33;;;6.50;;
30420;SDS011;17218;54.070;10.012;2023-03-29T10:24:49;9.43;;;7.17;;
30420;SDS011;17218;54.070;10.012;2023-03-29T10:27:18;8.13;;;6.65;;
30420;SDS011;17218;54.070;10.012;2023-03-29T10:29:47;7.28;;;5.75;;
30420;SDS011;17218;54.070;10.012;2023-03-29T10:32:15;9.57;;;6.50;;
30420;SDS011;17218;54.070;10.012;2023-03-29T10:34:48;9.70;;;6.40;;
30420;SDS011;17218;54.070;10.012;2023-03-29T10:37:16;11.75;;;6.32;;
30420;SDS011;17218;54.070;10.012;2023-03-29T10:39:45;10.52;;;6.95;;
30420;SDS011;17218;54.070;10.012;2023-03-29T10:42:13;12.23;;;7.10;;
30420;SDS011;17218;54.070;10.012;2023-03-29T10:44:42;8.80;;;6.18;;
30420;SDS011;17218;54.070;10.012;2023-03-29T10:47:17;9.87;;;6.40;;
30420;SDS011;17218;54.070;10.012;2023-03-29T10:49:47;11.83;;;6.93;;
30420;SDS011;17218;54.070;10.012;2023-03-29T10:52:16;8.97;;;6.27;;
30420;SDS011;17218;54.070;10.012;2023-03-29T10:54:42;11.55;;;6.07;;
30420;SDS011;17218;54.070;10.012;2023-03-29T10:57:12;8.93;;;6.18;;
30420;SDS011;17218;54.070;10.012;2023-03-29T10:59:44;9.00;;;6.60;;
30420;SDS011;17218;54.070;10.012;2023-03-29T11:02:30;13.00;;;6.55;;
30420;SDS011;17218;54.070;10.012;2023-03-29T11:05:16;8.80;;;5.72;;
30420;SDS011;17218;54.070;10.012;2023-03-29T11:07:53;11.70;;;8.27;;
30420;SDS011;17218;54.070;10.012;2023-03-29T11:10:35;9.73;;;6.57;;
30420;SDS011;17218;54.070;10.012;2023-03-29T11:13:12;8.63;;;6.10;;
30420;SDS011;17218;54.070;10.012;2023-03-29T11:15:49;8.40;;;6.65;;
30420;SDS011;17218;54.070;10.012;2023-03-29T11:18:35;7.47;;;6.18;;
30420;SDS011;17218;54.070;10.012;2023-03-29T11:21:14;8.23;;;6.28;;
30420;SDS011;17218;54.070;10.012;2023-03-29T11:23:52;9.93;;;6.68;;
30420;SDS011;17218;54.070;10.012;2023-03-29T11:26:29;10.48;;;6.80;;
30420;SDS011;17218;54.070;10.012;2023-03-29T11:29:07;10.70;;;7.15;;
30420;SDS011;17218;54.070;10.012;2023-03-29T11:31:42;8.07;;;5.57;;
30420;SDS011;17218;54.070;10.012;2023-03-29T11:34:23;9.30;;;6.88;;
30420;SDS011;17218;54.070;10.012;2023-03-29T11:36:57;9.45;;;6.70;;
30420;SDS011;17218;54.070;10.012;2023-03-29T11:39:29;10.70;;;6.95;;
30420;SDS011;17218;54.070;10.012;2023-03-29T11:42:06;11.05;;;6.90;;
30420;SDS011;17218;54.070;10.012;2023-03-29T11:44:41;8.27;;;6.80;;
30420;SDS011;17218;54.070;10.012;2023-03-29T11:47:11;11.52;;;7.70;;
30420;SDS011;17218;54.070;10.012;2023-03-29T11:49:43;9.85;;;6.70;;
30420;SDS011;17218;54.070;10.012;2023-03-29T11:52:16;9.20;;;7.38;;
30420;SDS011;17218;54.070;10.012;2023-03-29T11:54:45;11.77;;;7.63;;
30420;SDS011;17218;54.070;10.012;2023-03-29T11:57:17;12.03;;;8.30;;
30420;SDS011;17218;54.070;10.012;2023-03-29T11:59:52;11.23;;;7.37;;
30420;SDS011;17218;54.070;10.012;2023-03-29T12:02:25;8.55;;;7.15;;
30420;SDS011;17218;54.070;10.012;2023-03-29T12:04:57;8.95;;;7.00;;
30420;SDS011;17218;54.070;10.012;2023-03-29T12:07:28;7.47;;;6.68;;
30420;SDS011;17218;54.070;10.012;2023-03-29T12:09:58;8.20;;;6.57;;
30420;SDS011;17218;54.070;10.012;2023-03-29T12:12:31;9.20;;;6.47;;
30420;SDS011;17218;54.070;10.012;2023-03-29T12:15:09;8.82;;;7.00;;
30420;SDS011;17218;54.070;10.012;2023-03-29T12:17:45;13.38;;;7.80;;
30420;SDS011;17218;54.070;10.012;2023-03-29T12:20:18;9.45;;;8.15;;
30420;SDS011;17218;54.070;10.012;2023-03-29T12:22:50;9.48;;;7.40;;
30420;SDS011;17218;54.070;10.012;2023-03-29T12:25:19;9.68;;;7.65;;
30420;SDS011;17218;54.070;10.012;2023-03-29T12:27:50;11.85;;;8.30;;
30420;SDS011;17218;54.070;10.012;2023-03-29T12:30:33;11.05;;;7.72;;
30420;SDS011;17218;54.070;10.012;2023-03-29T12:36:07;13.95;;;8.38;;
30420;SDS011;17218;54.070;10.012;2023-03-29T12:38:41;11.73;;;8.45;;
30420;SDS011;17218;54.070;10.012;2023-03-29T12:41:10;10.80;;;8.20;;
30420;SDS011;17218;54.070;10.012;2023-03-29T12:43:43;8.93;;;7.60;;
30420;SDS011;17218;54.070;10.012;2023-03-29T12:46:13;12.55;;;8.13;;
30420;SDS011;17218;54.070;10.012;2023-03-29T12:48:42;11.38;;;8.27;;
30420;SDS011;17218;54.070;10.012;2023-03-29T12:51:11;13.50;;;7.82;;
30420;SDS011;17218;54.070;10.012;2023-03-29T12:53:40;10.67;;;7.80;;
30420;SDS011;17218;54.070;10.012;2023-03-29T12:56:10;10.38;;;7.57;;
30420;SDS011;17218;54.070;10.012;2023-03-29T12:58:41;9.80;;;7.57;;
30420;SDS011;17218;54.070;10.012;2023-03-29T13:01:27;9.60;;;7.85;;
30420;SDS011;17218;54.070;10.012;2023-03-29T13:03:56;10.38;;;7.55;;
30420;SDS011;17218;54.070;10.012;2023-03-29T13:06:54;11.02;;;7.18;;
30420;SDS011;17218;54.070;10.012;2023-03-29T13:09:27;11.47;;;7.67;;
30420;SDS011;17218;54.070;10.012;2023-03-29T13:11:56;9.68;;;8.20;;
30420;SDS011;17218;54.070;10.012;2023-03-29T13:14:30;10.85;;;7.50;;
30420;SDS011;17218;54.070;10.012;2023-03-29T13:17:01;10.45;;;8.32;;
30420;SDS011;17218;54.070;10.012;2023-03-29T13:19:30;12.15;;;9.27;;
30420;SDS011;17218;54.070;10.012;2023-03-29T13:22:05;11.25;;;9.43;;
30420;SDS011;17218;54.070;10.012;2023-03-29T13:24:45;13.70;;;10.02;;
30420;SDS011;17218;54.070;10.012;2023-03-29T13:27:27;12.55;;;10.30;;
30420;SDS011;17218;54.070;10.012;2023-03-29T13:30:07;12.95;;;10.18;;
30420;SDS011;17218;54.070;10.012;2023-03-29T13:32:49;13.15;;;10.52;;
30420;SDS011;17218;54.070;10.012;2023-03-29T13:35:27;11.85;;;10.50;;
30420;SDS011;17218;54.070;10.012;2023-03-29T13:38:04;14.38;;;11.13;;
30420;SDS011;17218;54.070;10.012;2023-03-29T13:40:44;11.98;;;10.50;;
30420;SDS011;17218;54.070;10.012;2023-03-29T13:43:28;15.80;;;11.60;;
30420;SDS011;17218;54.070;10.012;2023-03-29T13:46:03;14.10;;;11.60;;
30420;SDS011;17218;54.070;10.012;2023-03-29T13:48:48;14.80;;;11.10;;
30420;SDS011;17218;54.070;10.012;2023-03-29T13:51:30;13.70;;;11.00;;
30420;SDS011;17218;54.070;10.012;2023-03-29T13:54:00;16.20;;;11.45;;
30420;SDS011;17218;54.070;10.012;2023-03-29T13:56:33;15.80;;;10.65;;
30420;SDS011;17218;54.070;10.012;2023-03-29T13:59:04;15.93;;;11.48;;
30420;SDS011;17218;54.070;10.012;2023-03-29T14:01:38;14.75;;;10.73;;
30420;SDS011;17218;54.070;10.012;2023-03-29T14:04:12;16.40;;;11.77;;
30420;SDS011;17218;54.070;10.012;2023-03-29T14:06:44;13.80;;;11.52;;
30420;SDS011;17218;54.070;10.012;2023-03-29T14:09:17;14.23;;;11.23;;
30420;SDS011;17218;54.070;10.012;2023-03-29T14:11:47;13.75;;;11.50;;
30420;SDS011;17218;54.070;10.012;2023-03-29T14:14:14;16.75;;;12.18;;
30420;SDS011;17218;54.070;10.012;2023-03-29T14:16:41;15.15;;;12.07;;
30420;SDS011;17218;54.070;10.012;2023-03-29T14:19:12;14.48;;;12.30;;
30420;SDS011;17218;54.070;10.012;2023-03-29T14:21:42;15.68;;;11.57;;
30420;SDS011;17218;54.070;10.012;2023-03-29T14:24:10;17.27;;;11.52;;
30420;SDS011;17218;54.070;10.012;2023-03-29T14:26:43;14.70;;;12.23;;
30420;SDS011;17218;54.070;10.012;2023-03-29T14:29:12;15.48;;;11.98;;
30420;SDS011;17218;54.070;10.012;2023-03-29T14:31:39;13.15;;;11.32;;
30420;SDS011;17218;54.070;10.012;2023-03-29T14:34:10;14.03;;;11.73;;
30420;SDS011;17218;54.070;10.012;2023-03-29T14:36:40;16.33;;;12.13;;
30420;SDS011;17218;54.070;10.012;2023-03-29T14:39:09;14.43;;;11.68;;
30420;SDS011;17218;54.070;10.012;2023-03-29T14:41:40;15.48;;;12.40;;
30420;SDS011;17218;54.070;10.012;2023-03-29T14:44:13;13.43;;;11.40;;